Time;durP1;ratioP1;P1;durP2;ratioP2;P2;SDS_P1;SDS_P2;PMS_P1;PMS_P2;Temp;Humidity;BMP_temperature;BMP_pressure;BME280_temperature;BME280_humidity;BME280_pressure;Samples;Min_cycle;Max_cycle;Signal;HPM_P1;HPM_P2
2023/04/17 00:01:39;;;;;;;1.20;0.68;;;11.40;57.60;;;;;;6144285;23;20375;-78
2023/04/17 00:04:09;;;;;;;1.13;0.60;;;11.30;57.70;;;;;;6145025;23;20439;-78
2023/04/17 00:06:37;;;;;;;1.13;0.70;;;11.20;59.40;;;;;;6144252;23;20684;-78
2023/04/17 00:09:04;;;;;;;1.50;0.77;;;11.10;59.80;;;;;;6145705;23;20447;-78
2023/04/17 00:11:31;;;;;;;1.08;0.60;;;11.10;62.80;;;;;;6144532;23;20371;-78
2023/04/17 00:13:58;;;;;;;2.15;0.63;;;11.10;60.30;;;;;;6144793;23;20714;-78
2023/04/17 00:16:26;;;;;;;1.27;0.60;;;11.00;61.20;;;;;;6145283;23;20462;-78
2023/04/17 00:18:54;;;;;;;1.40;0.83;;;10.90;61.00;;;;;;6144469;23;20375;-78
2023/04/17 00:21:21;;;;;;;1.27;0.82;;;10.90;63.60;;;;;;6144885;23;20762;-78
2023/04/17 00:23:48;;;;;;;1.70;1.10;;;10.80;64.50;;;;;;6143779;23;20412;-78
2023/04/17 00:26:15;;;;;;;2.00;0.90;;;10.70;64.60;;;;;;6145178;23;20391;-78
2023/04/17 00:28:42;;;;;;;3.60;1.00;;;10.60;64.40;;;;;;6121450;23;20380;-78
2023/04/17 00:31:09;;;;;;;2.50;0.88;;;10.40;65.30;;;;;;6145542;23;20414;-78
2023/04/17 00:33:36;;;;;;;1.30;0.77;;;10.30;67.50;;;;;;6143296;23;20371;-79
2023/04/17 00:36:03;;;;;;;1.02;0.70;;;10.20;66.30;;;;;;6144583;23;20702;-78
2023/04/17 00:38:30;;;;;;;1.37;0.60;;;10.10;67.70;;;;;;6144613;23;20792;-78
2023/04/17 00:40:56;;;;;;;1.07;0.70;;;10.10;66.40;;;;;;6145554;23;20843;-77
2023/04/17 00:43:24;;;;;;;1.20;0.60;;;10.10;65.80;;;;;;6145383;23;20432;-77
2023/04/17 00:45:52;;;;;;;1.00;0.60;;;10.20;66.00;;;;;;6121621;23;20392;-78
2023/04/17 00:48:22;;;;;;;2.58;1.05;;;10.20;65.20;;;;;;6121851;23;20382;-78
2023/04/17 00:50:51;;;;;;;1.20;0.77;;;10.20;68.40;;;;;;6096703;23;20379;-78
2023/04/17 00:53:18;;;;;;;1.00;0.80;;;10.20;68.70;;;;;;6145829;23;20379;-78
2023/04/17 00:55:47;;;;;;;3.65;0.90;;;10.10;68.60;;;;;;6144303;23;20399;-78
2023/04/17 00:58:15;;;;;;;1.10;0.80;;;10.10;68.90;;;;;;6120775;23;20447;-78
2023/04/17 01:00:42;;;;;;;1.30;0.80;;;10.10;67.00;;;;;;6143841;23;20850;-78
2023/04/17 10:36:49;;;;;;;1.00;0.60;;;22.00;31.80;;;;;;6117550;23;20804;-81
2023/04/17 10:39:17;;;;;;;0.90;0.70;;;21.90;29.40;;;;;;6153796;23;20458;-81
2023/04/17 10:42:04;;;;;;;1.02;0.50;;;21.80;29.40;;;;;;6151804;23;20374;-80
2023/04/17 10:44:40;;;;;;;1.90;0.50;;;21.80;29.70;;;;;;6151706;23;20461;-80
2023/04/17 10:47:08;;;;;;;0.50;0.30;;;21.80;29.30;;;;;;6152504;23;20457;-81
2023/04/17 10:49:52;;;;;;;0.50;0.30;;;21.80;29.20;;;;;;6151439;23;20374;-81
2023/04/17 10:52:31;;;;;;;1.17;0.32;;;21.90;28.90;;;;;;6151888;23;20406;-81
2023/04/17 10:55:19;;;;;;;0.68;0.32;;;21.70;28.50;;;;;;6122015;23;20427;-81
2023/04/17 10:57:52;;;;;;;0.60;0.30;;;21.50;29.10;;;;;;6122131;23;20384;-81
2023/04/17 11:00:26;;;;;;;0.40;0.30;;;21.20;28.80;;;;;;6122781;23;20372;-81
2023/04/17 11:02:53;;;;;;;0.40;0.30;;;21.10;28.90;;;;;;6106816;23;20385;-82
2023/04/17 11:05:22;;;;;;;0.57;0.30;;;20.90;29.40;;;;;;6094883;23;20396;-81
2023/04/17 11:07:50;;;;;;;0.70;0.40;;;20.70;28.90;;;;;;6092191;23;20385;-81
2023/04/17 11:10:21;;;;;;;0.60;0.30;;;20.70;29.60;;;;;;6093604;23;20385;-80
2023/04/17 11:12:52;;;;;;;0.70;0.38;;;20.70;29.10;;;;;;6094192;23;20750;-81
2023/04/17 11:15:30;;;;;;;0.80;0.30;;;20.70;29.30;;;;;;6093305;23;20374;-81
2023/04/17 11:17:58;;;;;;;0.75;0.30;;;20.70;29.60;;;;;;6092077;23;20393;-80
2023/04/17 11:20:28;;;;;;;0.60;0.30;;;20.80;30.20;;;;;;6093559;23;20401;-81
2023/04/17 11:23:00;;;;;;;0.60;0.30;;;21.10;29.10;;;;;;6091716;23;20383;-81
2023/04/17 11:25:32;;;;;;;0.55;0.40;;;21.40;29.20;;;;;;6093055;23;20378;-81
2023/04/17 11:28:02;;;;;;;1.08;0.40;;;21.70;28.90;;;;;;6090867;23;20362;-81
2023/04/17 11:30:43;;;;;;;0.60;0.38;;;22.00;28.10;;;;;;6093069;23;20441;-81
2023/04/17 11:33:14;;;;;;;0.77;0.30;;;22.10;27.70;;;;;;6091746;23;20369;-81
2023/04/17 11:35:41;;;;;;;0.70;0.40;;;22.20;27.90;;;;;;6091877;23;20756;-81
2023/04/17 11:38:19;;;;;;;0.77;0.40;;;22.30;27.80;;;;;;6079325;23;20470;-81
2023/04/17 11:40:46;;;;;;;1.98;0.47;;;22.40;27.60;;;;;;6094373;23;20390;-81
2023/04/17 11:43:13;;;;;;;0.90;0.30;;;22.60;27.90;;;;;;6091066;23;20425;-81
2023/04/17 11:45:43;;;;;;;0.60;0.30;;;22.70;27.30;;;;;;6093444;23;20388;-82
2023/04/17 11:48:12;;;;;;;0.40;0.30;;;22.80;27.20;;;;;;6092504;23;20395;-81
2023/04/17 11:50:41;;;;;;;0.47;0.30;;;22.90;26.60;;;;;;6092425;23;20397;-81
2023/04/17 11:53:13;;;;;;;0.50;0.38;;;22.90;27.10;;;;;;6093807;23;20382;-82
2023/04/17 11:55:40;;;;;;;0.63;0.40;;;22.80;26.40;;;;;;6092277;23;20397;-80
2023/04/17 11:58:08;;;;;;;0.63;0.30;;;22.90;26.30;;;;;;6092417;23;20389;-81
2023/04/17 12:00:37;;;;;;;0.80;0.30;;;22.90;26.10;;;;;;6092990;23;20716;-81
2023/04/17 12:03:29;;;;;;;0.40;0.30;;;23.00;26.10;;;;;;6092307;23;20405;-82
2023/04/17 12:05:58;;;;;;;0.57;0.20;;;22.90;26.30;;;;;;6090580;23;20440;-81
2023/04/17 12:08:26;;;;;;;0.77;0.30;;;22.90;26.70;;;;;;6094508;23;20696;-81
2023/04/17 12:10:52;;;;;;;0.68;0.40;;;22.90;26.60;;;;;;6090621;23;20378;-82
2023/04/17 12:13:20;;;;;;;1.20;0.40;;;23.00;26.70;;;;;;6093198;23;20445;-81
2023/04/17 12:15:46;;;;;;;0.80;0.30;;;23.10;26.10;;;;;;6091660;23;20409;-81
2023/04/17 12:18:13;;;;;;;0.40;0.30;;;23.20;26.20;;;;;;6091677;23;20444;-81
2023/04/17 12:20:40;;;;;;;0.52;0.30;;;23.40;25.90;;;;;;6092418;23;20401;-81
2023/04/17 12:23:07;;;;;;;0.50;0.30;;;23.60;26.40;;;;;;6092350;23;20377;-81
2023/04/17 12:25:34;;;;;;;0.70;0.20;;;23.70;26.30;;;;;;6092004;23;20412;-82
2023/04/17 12:28:03;;;;;;;0.40;0.20;;;23.60;26.10;;;;;;6092171;23;20456;-81
2023/04/17 12:30:32;;;;;;;0.30;0.13;;;23.70;26.30;;;;;;6093197;23;20373;-82
2023/04/17 12:32:59;;;;;;;0.77;0.30;;;23.70;26.30;;;;;;6092173;23;20436;-82
2023/04/17 12:35:26;;;;;;;1.15;0.25;;;23.70;25.30;;;;;;6092023;23;20818;-81
2023/04/17 12:37:53;;;;;;;0.85;0.20;;;23.50;25.50;;;;;;6092092;23;20392;-82
2023/04/17 12:40:22;;;;;;;0.20;0.20;;;23.50;25.50;;;;;;6094199;23;20436;-80
2023/04/17 12:42:50;;;;;;;0.20;0.20;;;23.30;25.60;;;;;;6091184;23;20385;-81
2023/04/17 12:45:17;;;;;;;1.10;0.20;;;23.20;25.60;;;;;;6092209;23;20454;-82
2023/04/17 12:47:44;;;;;;;0.40;0.20;;;23.20;26.20;;;;;;6093226;23;20440;-81
2023/04/17 12:50:11;;;;;;;0.20;0.10;;;23.20;25.20;;;;;;6092495;23;20437;-81
2023/04/17 12:52:40;;;;;;;0.50;0.10;;;23.30;25.80;;;;;;6092252;23;20385;-81
2023/04/17 12:55:07;;;;;;;0.20;0.20;;;23.50;26.20;;;;;;6092240;23;20397;-81
2023/04/17 12:57:35;;;;;;;1.10;0.30;;;23.90;25.50;;;;;;6092440;23;20748;-82
2023/04/17 13:00:07;;;;;;;0.40;0.15;;;24.10;24.80;;;;;;6093407;23;20440;-82
2023/04/17 13:02:38;;;;;;;0.30;0.20;;;24.10;24.20;;;;;;6092944;23;20376;-81
2023/04/17 13:05:06;;;;;;;0.73;0.20;;;23.80;24.30;;;;;;6092507;23;20720;-81
2023/04/17 13:07:33;;;;;;;0.38;0.20;;;23.60;24.50;;;;;;6094824;23;20384;-81
2023/04/17 13:10:00;;;;;;;0.40;0.20;;;23.20;24.10;;;;;;6095301;23;20377;-82
2023/04/17 13:12:27;;;;;;;0.20;0.10;;;23.00;24.70;;;;;;6094954;23;20420;-81
2023/04/17 13:14:56;;;;;;;0.75;0.20;;;23.00;25.30;;;;;;6095129;23;20381;-81
2023/04/17 13:17:23;;;;;;;0.55;0.20;;;23.00;25.60;;;;;;6122111;23;20379;-82
2023/04/17 13:19:50;;;;;;;0.50;0.20;;;23.10;25.40;;;;;;6148276;23;20380;-81
2023/04/17 13:22:19;;;;;;;1.10;0.20;;;23.20;25.30;;;;;;6147698;23;20407;-81
2023/04/17 13:24:46;;;;;;;0.50;0.10;;;23.30;25.20;;;;;;6148836;23;20374;-81
2023/04/17 13:27:13;;;;;;;1.00;0.20;;;23.40;25.30;;;;;;6147904;23;20932;-82
2023/04/17 13:29:40;;;;;;;0.75;0.20;;;23.50;25.00;;;;;;6148246;23;20364;-81
2023/04/17 13:32:07;;;;;;;0.30;0.20;;;23.60;24.80;;;;;;6147752;23;20382;-81
2023/04/17 13:34:33;;;;;;;0.68;0.20;;;23.70;25.00;;;;;;6146965;23;20399;-83
2023/04/17 13:37:00;;;;;;;0.20;0.20;;;23.90;24.80;;;;;;6124392;23;20908;-81
2023/04/17 13:39:27;;;;;;;1.10;0.20;;;24.10;24.30;;;;;;6148192;23;20403;-81
2023/04/17 13:41:56;;;;;;;0.85;0.20;;;24.20;24.90;;;;;;6148377;23;20395;-81
2023/04/17 13:44:23;;;;;;;0.90;0.30;;;24.20;24.10;;;;;;6147152;23;20388;-80
2023/04/17 13:46:51;;;;;;;0.30;0.20;;;24.30;24.40;;;;;;6147835;23;20872;-80
2023/04/17 13:49:19;;;;;;;0.20;0.20;;;24.40;24.90;;;;;;6146923;23;20387;-80
2023/04/17 13:51:46;;;;;;;0.27;0.20;;;24.60;24.80;;;;;;6146484;23;20435;-80
2023/04/17 13:54:13;;;;;;;0.20;0.20;;;24.80;24.30;;;;;;6146610;23;20454;-81
2023/04/17 13:56:41;;;;;;;2.10;0.50;;;24.90;24.20;;;;;;6148332;23;20372;-81
2023/04/17 13:59:09;;;;;;;0.90;0.30;;;25.00;23.70;;;;;;6124399;23;20387;-80
2023/04/17 14:01:36;;;;;;;0.25;0.20;;;24.90;24.50;;;;;;6148136;23;20472;-80
2023/04/17 14:04:03;;;;;;;1.48;0.30;;;25.00;24.30;;;;;;6147838;23;20378;-80
2023/04/17 14:06:32;;;;;;;0.55;0.20;;;25.00;24.10;;;;;;6147947;23;20372;-81
2023/04/17 14:08:59;;;;;;;0.90;0.30;;;24.90;24.40;;;;;;6148350;23;20438;-78
2023/04/17 14:11:26;;;;;;;0.80;0.20;;;24.80;23.70;;;;;;6146809;23;20392;-80
2023/04/17 14:13:53;;;;;;;0.90;0.20;;;24.50;24.30;;;;;;6123760;23;20387;-80
2023/04/17 14:16:20;;;;;;;1.00;0.20;;;24.40;24.50;;;;;;6124560;23;20702;-79
2023/04/17 14:18:48;;;;;;;0.20;0.10;;;24.50;25.50;;;;;;6147740;23;20379;-80
2023/04/17 14:21:16;;;;;;;0.70;0.20;;;24.60;24.40;;;;;;6147003;23;20454;-79
2023/04/17 14:23:43;;;;;;;1.25;0.40;;;24.90;24.40;;;;;;6147867;23;21018;-79
2023/04/17 14:26:11;;;;;;;0.60;0.20;;;24.60;24.00;;;;;;6123492;23;20774;-79
2023/04/17 14:28:38;;;;;;;1.58;0.30;;;24.30;24.20;;;;;;6147882;23;20729;-79
2023/04/17 14:31:05;;;;;;;0.40;0.30;;;23.70;24.40;;;;;;6146558;23;20450;-79
2023/04/17 14:33:32;;;;;;;1.10;0.50;;;23.30;24.80;;;;;;6124991;23;20431;-79
2023/04/17 14:35:59;;;;;;;0.40;0.13;;;22.90;25.60;;;;;;6147149;23;20379;-79
2023/04/17 14:38:26;;;;;;;0.35;0.22;;;22.60;26.00;;;;;;6146749;23;20456;-79
2023/04/17 14:40:53;;;;;;;0.98;0.30;;;22.40;26.20;;;;;;6147320;23;20400;-80
2023/04/17 14:43:20;;;;;;;1.00;0.20;;;22.40;26.60;;;;;;6147030;23;20450;-81
2023/04/17 14:45:47;;;;;;;1.33;0.40;;;22.40;26.90;;;;;;6147853;23;20464;-83
2023/04/17 14:48:14;;;;;;;1.33;0.40;;;22.30;26.30;;;;;;6145966;23;20383;-82
2023/04/17 14:50:40;;;;;;;0.75;0.40;;;22.00;26.40;;;;;;6147779;23;20672;-82
2023/04/17 14:53:07;;;;;;;0.68;0.40;;;21.90;27.50;;;;;;6146151;23;20430;-83
2023/04/17 14:55:35;;;;;;;1.20;0.40;;;21.70;26.90;;;;;;6148107;23;20390;-79
2023/04/17 14:58:02;;;;;;;2.42;0.55;;;21.60;27.40;;;;;;6147308;23;20435;-82
2023/04/17 15:00:30;;;;;;;1.42;0.40;;;21.50;27.80;;;;;;6146597;23;20370;-81
2023/04/17 15:02:57;;;;;;;0.77;0.20;;;21.50;29.30;;;;;;6147091;23;20399;-81
2023/04/17 15:05:25;;;;;;;0.80;0.30;;;21.40;28.60;;;;;;6146788;23;20388;-82
2023/04/17 15:07:52;;;;;;;2.10;0.40;;;21.40;28.30;;;;;;6147838;23;20750;-82
2023/04/17 15:10:19;;;;;;;0.60;0.30;;;21.30;27.90;;;;;;6146473;23;20476;-81
2023/04/17 15:12:46;;;;;;;2.00;0.43;;;21.10;27.90;;;;;;6146861;23;20399;-82
2023/04/17 15:15:13;;;;;;;0.65;0.30;;;21.10;28.10;;;;;;6145464;23;20376;-82
2023/04/17 15:17:40;;;;;;;0.30;0.20;;;21.10;28.00;;;;;;6145907;23;20743;-81
2023/04/17 15:20:07;;;;;;;1.55;0.20;;;21.10;28.00;;;;;;6146376;23;20388;-82
2023/04/17 15:22:34;;;;;;;1.20;0.40;;;21.10;28.10;;;;;;6147045;23;20375;-81
2023/04/17 15:25:01;;;;;;;1.50;0.40;;;21.10;28.80;;;;;;6146909;23;20443;-81
2023/04/17 15:27:28;;;;;;;2.30;0.40;;;21.20;27.70;;;;;;6146376;23;20706;-81
2023/04/17 15:29:54;;;;;;;2.20;0.38;;;21.50;28.30;;;;;;6146936;23;20375;-81
2023/04/17 15:32:21;;;;;;;0.50;0.30;;;21.70;27.60;;;;;;6144155;23;20403;-81
2023/04/17 15:34:48;;;;;;;0.70;0.20;;;21.90;27.60;;;;;;6147213;23;20778;-82
2023/04/17 15:37:15;;;;;;;0.40;0.20;;;22.20;27.60;;;;;;6144716;23;20399;-82
2023/04/17 15:39:42;;;;;;;0.28;0.20;;;22.50;27.20;;;;;;6147413;23;20379;-81
2023/04/17 15:42:10;;;;;;;0.60;0.40;;;22.80;26.90;;;;;;6146049;23;20428;-82
2023/04/17 15:44:37;;;;;;;1.05;0.20;;;22.80;25.80;;;;;;6147238;23;20375;-82
2023/04/17 15:47:05;;;;;;;1.10;0.20;;;22.80;26.10;;;;;;6147004;23;20499;-82
2023/04/17 15:49:32;;;;;;;0.60;0.30;;;22.80;25.90;;;;;;6146130;23;20442;-84
2023/04/17 15:51:59;;;;;;;0.60;0.20;;;22.80;26.60;;;;;;6145856;23;20383;-82
2023/04/17 15:54:26;;;;;;;0.57;0.47;;;22.90;26.30;;;;;;6145665;23;20384;-83
2023/04/17 15:56:55;;;;;;;0.40;0.30;;;23.00;26.00;;;;;;6146087;23;20853;-82
2023/04/17 15:59:22;;;;;;;0.75;0.20;;;23.10;25.70;;;;;;6146744;23;20384;-81
2023/04/17 16:01:51;;;;;;;0.80;0.20;;;23.00;25.10;;;;;;6146538;23;20372;-81
2023/04/17 16:04:18;;;;;;;0.68;0.20;;;22.90;25.20;;;;;;6146433;23;20430;-82
2023/04/17 16:06:46;;;;;;;0.40;0.20;;;23.00;25.80;;;;;;6146100;23;20743;-82
2023/04/17 16:09:16;;;;;;;0.60;0.20;;;23.10;25.70;;;;;;6122991;23;20426;-82
2023/04/17 16:11:43;;;;;;;0.37;0.20;;;23.10;24.90;;;;;;6145687;23;20742;-82
2023/04/17 16:14:10;;;;;;;1.40;0.20;;;23.00;25.60;;;;;;6145007;23;20726;-82
2023/04/17 16:16:37;;;;;;;0.30;0.20;;;23.00;25.50;;;;;;6091998;23;20711;-82
2023/04/17 16:19:04;;;;;;;0.45;0.25;;;23.00;25.80;;;;;;6093473;23;20448;-82
2023/04/17 16:21:31;;;;;;;0.40;0.20;;;23.20;25.60;;;;;;6092434;23;20764;-82
2023/04/17 16:23:58;;;;;;;0.45;0.32;;;23.20;25.30;;;;;;6093277;23;20390;-82
2023/04/17 16:26:25;;;;;;;1.30;0.20;;;23.10;25.30;;;;;;6092219;23;20476;-82
2023/04/17 16:28:52;;;;;;;1.95;0.50;;;23.00;25.90;;;;;;6092672;23;20378;-81
2023/04/17 16:31:20;;;;;;;0.40;0.30;;;22.80;25.10;;;;;;6092116;23;20448;-81
2023/04/17 16:33:47;;;;;;;2.22;0.30;;;22.50;25.70;;;;;;6092637;23;20376;-81
2023/04/17 16:36:14;;;;;;;0.68;0.20;;;22.30;26.10;;;;;;6092872;23;20405;-81
2023/04/17 16:38:41;;;;;;;0.80;0.20;;;22.10;26.30;;;;;;6091928;23;20370;-82
2023/04/17 16:41:07;;;;;;;0.20;0.10;;;22.00;26.90;;;;;;6094468;23;20465;-82
2023/04/17 16:43:34;;;;;;;0.20;0.10;;;22.00;27.40;;;;;;6094674;23;20385;-82
2023/04/17 16:46:01;;;;;;;0.50;0.20;;;22.00;27.60;;;;;;6094650;23;20393;-81
2023/04/17 16:48:44;;;;;;;1.05;0.30;;;22.00;27.20;;;;;;6094610;23;20369;-81
2023/04/17 16:51:11;;;;;;;1.50;0.20;;;22.10;27.00;;;;;;6094051;23;20381;-81
2023/04/17 16:53:40;;;;;;;1.00;0.30;;;22.00;26.70;;;;;;6094076;23;20376;-81
2023/04/17 16:56:07;;;;;;;0.40;0.30;;;21.80;26.90;;;;;;6094504;23;20405;-81
2023/04/17 16:58:34;;;;;;;0.32;0.20;;;21.60;27.10;;;;;;6092343;23;20373;-81
2023/04/17 17:01:01;;;;;;;0.90;0.30;;;21.20;27.50;;;;;;6096122;23;20373;-81
2023/04/17 17:03:28;;;;;;;1.15;0.50;;;21.00;27.90;;;;;;6094121;23;20384;-82
2023/04/17 17:05:56;;;;;;;1.50;0.50;;;20.70;28.10;;;;;;6094899;23;20392;-82
2023/04/17 17:08:23;;;;;;;0.90;0.30;;;20.50;28.30;;;;;;6093488;23;20381;-81
2023/04/17 17:10:50;;;;;;;0.30;0.20;;;20.30;28.70;;;;;;6094752;23;20441;-82
2023/04/17 17:13:17;;;;;;;0.77;0.50;;;20.10;28.80;;;;;;6095177;23;20750;-81
2023/04/17 17:15:43;;;;;;;2.00;0.80;;;19.90;28.90;;;;;;6093524;23;20465;-82
2023/04/17 17:18:10;;;;;;;2.42;0.80;;;19.70;28.90;;;;;;6092802;23;20764;-82
2023/04/17 17:20:37;;;;;;;1.10;0.60;;;19.60;29.10;;;;;;6093159;23;20444;-81
2023/04/17 17:23:04;;;;;;;1.48;1.02;;;19.50;29.40;;;;;;6094498;23;20450;-81
2023/04/17 17:25:31;;;;;;;0.95;0.50;;;19.40;29.60;;;;;;6094024;23;20378;-81
2023/04/17 17:27:58;;;;;;;2.38;0.40;;;19.30;29.50;;;;;;6094591;23;20475;-82
2023/04/17 17:30:24;;;;;;;2.63;0.30;;;19.20;29.80;;;;;;6093463;23;20716;-81
2023/04/17 17:32:51;;;;;;;0.45;0.30;;;19.10;30.00;;;;;;6094506;23;20401;-81
2023/04/17 17:35:18;;;;;;;1.40;0.30;;;19.00;29.90;;;;;;6094416;23;20476;-82
2023/04/17 17:37:45;;;;;;;0.65;0.30;;;18.90;29.90;;;;;;6093480;23;20390;-82
2023/04/17 17:40:12;;;;;;;0.28;0.20;;;18.70;30.00;;;;;;6094409;23;20381;-82
2023/04/17 17:42:39;;;;;;;0.40;0.20;;;18.70;30.50;;;;;;6094072;23;20382;-81
2023/04/17 17:45:06;;;;;;;0.50;0.20;;;18.60;30.80;;;;;;6093923;23;20444;-82
2023/04/17 17:47:33;;;;;;;0.70;0.20;;;18.60;31.30;;;;;;6093564;23;20382;-81
2023/04/17 17:50:00;;;;;;;0.50;0.20;;;18.50;31.50;;;;;;6094324;23;20715;-82
2023/04/17 17:52:27;;;;;;;1.30;0.38;;;18.50;31.70;;;;;;6094708;23;20697;-81
2023/04/17 17:54:54;;;;;;;2.75;2.00;;;18.40;31.80;;;;;;6092284;23;20440;-82
2023/04/17 17:57:21;;;;;;;1.20;1.10;;;18.30;31.60;;;;;;6094851;23;20716;-81
2023/04/17 17:59:47;;;;;;;1.67;1.13;;;18.20;31.90;;;;;;6092707;23;20689;-81
2023/04/17 18:02:14;;;;;;;1.08;0.80;;;18.10;32.10;;;;;;6094002;23;20425;-82
2023/04/17 18:04:41;;;;;;;0.88;0.70;;;18.00;32.20;;;;;;6093378;23;20385;-81
2023/04/17 18:07:08;;;;;;;3.40;2.40;;;18.00;32.40;;;;;;6093794;23;20389;-81
2023/04/17 18:09:35;;;;;;;2.47;1.90;;;17.90;32.60;;;;;;6092241;23;20381;-82
2023/04/17 18:12:02;;;;;;;1.90;1.00;;;17.80;32.70;;;;;;6093671;23;20517;-81
2023/04/17 18:14:30;;;;;;;2.53;0.50;;;17.70;33.00;;;;;;6093589;23;20449;-82
2023/04/17 18:16:57;;;;;;;0.45;0.20;;;17.60;33.40;;;;;;6093915;23;20378;-82
2023/04/17 18:19:24;;;;;;;0.28;0.20;;;17.50;33.70;;;;;;6091490;23;20396;-81
2023/04/17 18:21:51;;;;;;;0.35;0.10;;;17.40;34.20;;;;;;6093014;23;20396;-81
2023/04/17 18:24:18;;;;;;;1.30;0.30;;;17.30;34.50;;;;;;6093946;23;20757;-82
2023/04/17 18:26:45;;;;;;;0.70;0.10;;;17.10;35.60;;;;;;6092894;23;20441;-81
2023/04/17 18:29:12;;;;;;;1.38;0.20;;;17.00;36.00;;;;;;6094136;23;20708;-82
2023/04/17 18:31:38;;;;;;;0.43;0.30;;;16.90;36.40;;;;;;6092773;23;20898;-81
2023/04/17 18:34:06;;;;;;;0.38;0.20;;;16.70;36.40;;;;;;6093924;23;20381;-81
2023/04/17 18:36:32;;;;;;;0.45;0.30;;;16.60;36.30;;;;;;6092769;23;20476;-82
2023/04/17 18:38:59;;;;;;;0.30;0.20;;;16.50;37.20;;;;;;6093458;23;20404;-82
2023/04/17 18:41:26;;;;;;;1.10;0.32;;;16.40;36.90;;;;;;6093677;23;20405;-81
2023/04/17 18:43:53;;;;;;;1.08;0.50;;;16.30;37.10;;;;;;6105551;23;20401;-82
2023/04/17 18:46:21;;;;;;;0.60;0.45;;;16.20;37.20;;;;;;6093387;23;20776;-82
2023/04/17 18:48:48;;;;;;;0.80;0.65;;;16.10;37.20;;;;;;6092938;23;20380;-81
2023/04/17 18:51:16;;;;;;;1.98;1.00;;;16.00;37.30;;;;;;6094980;23;20709;-82
2023/04/17 18:53:43;;;;;;;1.00;0.90;;;15.90;38.00;;;;;;6091723;23;20797;-82
2023/04/17 18:56:12;;;;;;;1.20;1.10;;;15.80;38.30;;;;;;6093540;23;20381;-82
2023/04/17 18:58:39;;;;;;;1.80;1.08;;;15.70;38.60;;;;;;6092483;23;20381;-82
2023/04/17 19:01:08;;;;;;;2.80;0.90;;;15.60;39.00;;;;;;6093735;23;20361;-82
2023/04/17 19:03:37;;;;;;;3.50;1.20;;;15.50;39.40;;;;;;6093180;23;20704;-82
2023/04/17 19:06:05;;;;;;;1.85;1.45;;;15.30;40.00;;;;;;6093516;23;20382;-82
2023/04/17 19:08:32;;;;;;;3.75;2.55;;;15.20;39.70;;;;;;6092426;23;20377;-82
2023/04/17 19:10:59;;;;;;;4.22;1.88;;;15.10;40.10;;;;;;6092619;23;20366;-82
2023/04/17 19:13:26;;;;;;;2.00;1.45;;;15.10;40.50;;;;;;6093281;23;20374;-80
2023/04/17 19:15:54;;;;;;;1.48;1.20;;;15.00;40.80;;;;;;6092712;23;20393;-81
2023/04/17 19:18:20;;;;;;;1.93;1.10;;;14.90;40.90;;;;;;6093570;23;20389;-81
2023/04/17 19:20:47;;;;;;;1.60;1.00;;;14.70;40.90;;;;;;6093012;23;20440;-82
2023/04/17 19:23:14;;;;;;;1.30;0.70;;;14.70;41.00;;;;;;6093191;23;20505;-81
2023/04/17 19:25:41;;;;;;;1.50;0.80;;;14.60;41.10;;;;;;6092372;23;20377;-81
2023/04/17 19:28:09;;;;;;;1.63;0.60;;;14.50;41.40;;;;;;6094040;23;20758;-82
2023/04/17 19:30:36;;;;;;;0.90;0.70;;;14.50;41.20;;;;;;6092830;23;20681;-82
2023/04/17 19:33:03;;;;;;;0.82;0.70;;;14.40;41.20;;;;;;6093801;23;20382;-82
2023/04/17 19:35:31;;;;;;;0.82;0.63;;;14.30;41.30;;;;;;6093225;23;20378;-82
2023/04/17 19:37:58;;;;;;;1.10;0.68;;;14.30;41.40;;;;;;6121793;23;20437;-82
2023/04/17 19:40:25;;;;;;;2.42;1.00;;;14.30;42.10;;;;;;6146840;23;20467;-82
2023/04/17 19:42:55;;;;;;;1.40;0.85;;;14.20;43.10;;;;;;6146030;23;20376;-82
2023/04/17 19:45:21;;;;;;;2.15;0.70;;;14.10;44.30;;;;;;6146825;23;20371;-82
2023/04/17 19:47:53;;;;;;;1.48;0.73;;;13.90;44.00;;;;;;6123457;23;20391;-82
2023/04/17 19:50:26;;;;;;;1.20;0.63;;;13.80;44.60;;;;;;6146984;23;20386;-82
2023/04/17 19:52:54;;;;;;;2.00;0.70;;;13.80;44.40;;;;;;6123297;23;20435;-82
2023/04/17 19:55:21;;;;;;;2.27;0.80;;;13.60;44.70;;;;;;6145431;23;20379;-81
2023/04/17 19:57:49;;;;;;;1.48;0.68;;;13.60;45.00;;;;;;6146268;23;20384;-82
2023/04/17 20:00:16;;;;;;;1.35;0.85;;;13.50;44.70;;;;;;6146936;23;20383;-82
2023/04/17 20:02:43;;;;;;;1.42;1.10;;;13.40;44.80;;;;;;6145375;23;20462;-82
2023/04/17 20:05:10;;;;;;;1.63;1.00;;;13.30;45.50;;;;;;6146499;23;20376;-82
2023/04/17 20:07:37;;;;;;;1.58;1.25;;;13.30;45.30;;;;;;6145684;23;20430;-82
2023/04/17 20:10:05;;;;;;;1.92;1.30;;;13.20;45.70;;;;;;6147267;23;20691;-82
2023/04/17 20:12:31;;;;;;;1.80;1.50;;;13.10;45.70;;;;;;6145410;23;20375;-82
2023/04/17 20:14:58;;;;;;;3.10;1.85;;;13.10;47.00;;;;;;6146400;23;20418;-82
2023/04/17 20:17:25;;;;;;;2.47;1.98;;;13.00;45.70;;;;;;6146033;23;20380;-82
2023/04/17 20:19:52;;;;;;;3.65;2.25;;;13.00;46.30;;;;;;6145945;23;20860;-82
2023/04/17 20:22:19;;;;;;;2.55;2.35;;;12.90;46.20;;;;;;6145559;23;20401;-82
2023/04/17 20:24:49;;;;;;;1.98;1.65;;;12.90;47.00;;;;;;6145527;23;20434;-82
2023/04/17 20:27:16;;;;;;;1.33;1.05;;;12.80;46.50;;;;;;6146029;23;20770;-82
2023/04/17 20:29:43;;;;;;;3.83;1.03;;;12.70;46.40;;;;;;6122473;23;20434;-82
2023/04/17 20:32:10;;;;;;;1.67;0.95;;;12.70;46.70;;;;;;6146502;23;20762;-82
2023/04/17 20:34:38;;;;;;;2.03;1.08;;;12.60;46.90;;;;;;6145844;23;20427;-82
2023/04/17 20:37:05;;;;;;;1.97;1.17;;;12.50;47.00;;;;;;6098159;23;20399;-81
2023/04/17 20:39:32;;;;;;;2.13;0.95;;;12.40;47.40;;;;;;6146696;23;20408;-82
2023/04/17 20:41:59;;;;;;;1.00;0.80;;;12.30;47.00;;;;;;6145256;23;20410;-82
2023/04/17 20:44:25;;;;;;;0.98;0.70;;;12.30;47.90;;;;;;6145588;23;20387;-82
2023/04/17 20:46:52;;;;;;;1.30;0.90;;;12.10;47.60;;;;;;6144511;23;20467;-82
2023/04/17 20:49:19;;;;;;;1.50;0.70;;;12.10;47.70;;;;;;6146082;23;20463;-82
2023/04/17 20:51:46;;;;;;;1.50;0.73;;;12.00;48.50;;;;;;6121088;23;20442;-82
2023/04/17 20:54:13;;;;;;;1.10;0.77;;;11.90;48.40;;;;;;6146576;23;20736;-82
2023/04/17 20:56:41;;;;;;;1.23;0.68;;;11.80;48.70;;;;;;6097175;23;20376;-81
2023/04/17 20:59:08;;;;;;;0.75;0.60;;;11.80;49.00;;;;;;6146197;23;20743;-82
2023/04/17 21:01:35;;;;;;;1.02;0.73;;;11.70;48.40;;;;;;6146485;23;20375;-82
2023/04/17 21:04:02;;;;;;;1.08;0.60;;;11.70;49.60;;;;;;6144461;23;20364;-82
2023/04/17 21:06:29;;;;;;;1.55;1.10;;;11.60;49.20;;;;;;6146846;23;20371;-82
2023/04/17 21:08:56;;;;;;;2.15;1.40;;;11.60;50.50;;;;;;6145080;23;20372;-81
2023/04/17 21:11:23;;;;;;;2.22;1.13;;;11.50;50.80;;;;;;6146052;23;20395;-82
2023/04/17 21:13:50;;;;;;;2.03;1.23;;;11.50;51.30;;;;;;6145578;23;20390;-81
2023/04/17 21:16:19;;;;;;;1.50;0.80;;;11.40;51.30;;;;;;6145768;23;20376;-82
2023/04/17 21:18:47;;;;;;;1.45;1.00;;;11.40;51.00;;;;;;6145018;23;20372;-81
2023/04/17 21:21:14;;;;;;;1.90;0.85;;;11.30;51.20;;;;;;6146093;23;20706;-82
2023/04/17 21:23:40;;;;;;;1.80;1.00;;;11.20;51.30;;;;;;6146539;23;20386;-82
2023/04/17 21:26:07;;;;;;;1.38;0.80;;;11.20;51.60;;;;;;6145871;23;20364;-82
2023/04/17 21:28:37;;;;;;;1.58;1.05;;;11.10;51.90;;;;;;6147764;23;20393;-82
2023/04/17 21:31:08;;;;;;;1.08;0.80;;;11.00;52.00;;;;;;6147049;23;20833;-82
2023/04/17 21:33:36;;;;;;;1.15;0.82;;;10.90;52.30;;;;;;6148324;23;20379;-82
2023/04/17 21:36:03;;;;;;;1.52;1.05;;;10.90;52.10;;;;;;6146551;23;20380;-82
2023/04/17 21:38:29;;;;;;;3.50;1.40;;;10.80;53.50;;;;;;6148511;23;20372;-81
2023/04/17 21:40:57;;;;;;;2.17;1.67;;;10.70;53.40;;;;;;6147224;23;20375;-82
2023/04/17 21:43:24;;;;;;;2.28;1.63;;;10.60;53.60;;;;;;6148189;23;20830;-82
2023/04/17 21:45:51;;;;;;;2.92;1.48;;;10.50;53.60;;;;;;6147137;23;20399;-82
2023/04/17 21:48:18;;;;;;;1.63;1.25;;;10.50;53.30;;;;;;6148265;23;20852;-83
2023/04/17 21:50:47;;;;;;;2.15;1.45;;;10.40;53.70;;;;;;6146946;23;20383;-82
2023/04/17 21:53:14;;;;;;;2.28;1.67;;;10.40;54.00;;;;;;6147807;23;20388;-82
2023/04/17 21:55:41;;;;;;;2.13;1.60;;;10.40;54.30;;;;;;6148068;23;20380;-82
2023/04/17 21:58:10;;;;;;;3.23;1.40;;;10.30;53.80;;;;;;6122576;23;20383;-82
2023/04/17 22:00:37;;;;;;;2.53;1.45;;;10.30;55.10;;;;;;6146510;23;20394;-82
2023/04/17 22:03:04;;;;;;;15.68;8.25;;;10.20;55.90;;;;;;6146680;23;20376;-82
2023/04/17 22:05:31;;;;;;;113.68;54.28;;;10.10;57.90;;;;;;6147612;23;20383;-81
2023/04/17 22:07:57;;;;;;;141.13;72.85;;;10.10;57.40;;;;;;6122401;23;20380;-82
2023/04/17 22:10:25;;;;;;;122.82;63.67;;;10.00;57.60;;;;;;6123599;23;20463;-82
2023/04/17 22:12:52;;;;;;;68.55;38.40;;;10.00;57.20;;;;;;6122077;23;20376;-82
2023/04/17 22:15:19;;;;;;;40.22;22.88;;;10.00;58.20;;;;;;6122975;23;20770;-82
2023/04/17 22:17:46;;;;;;;16.93;11.03;;;9.90;57.50;;;;;;6122285;23;20372;-83
2023/04/17 22:20:13;;;;;;;12.27;8.10;;;9.90;57.80;;;;;;6122289;23;20438;-82
2023/04/17 22:22:39;;;;;;;10.38;6.28;;;9.90;59.10;;;;;;6147609;23;20463;-82